Time;durP1;ratioP1;P1;durP2;ratioP2;P2;SDS_P1;SDS_P2;PMS_P1;PMS_P2;Temp;Humidity;BMP_temperature;BMP_pressure;BME280_temperature;BME280_humidity;BME280_pressure;Samples;Min_cycle;Max_cycle;Signal;HPM_P1;HPM_P2
2023/06/14 00:02:15;;;;;;;;;;;26.10;42.00;;;;;;4919556;29;20005;-89
2023/06/14 00:04:41;;;;;;;;;;;26.10;42.00;;;;;;4903042;29;19911;-89
2023/06/14 00:07:08;;;;;;;;;;;26.10;42.10;;;;;;4918337;29;19934;-89
2023/06/14 00:09:34;;;;;;;;;;;26.10;42.00;;;;;;4918738;29;19970;-89
2023/06/14 00:12:03;;;;;;;;;;;26.10;42.00;;;;;;4902609;29;20029;-89
2023/06/14 00:14:28;;;;;;;;;;;26.10;42.00;;;;;;4902814;29;19922;-89
2023/06/14 00:16:58;;;;;;;;;;;26.10;42.00;;;;;;4901078;29;19919;-89
2023/06/14 00:19:26;;;;;;;;;;;26.10;42.00;;;;;;4900024;29;19921;-89
2023/06/14 00:21:55;;;;;;;;;;;26.10;42.00;;;;;;4901496;29;19916;-89
2023/06/14 00:24:21;;;;;;;;;;;26.10;42.00;;;;;;4901459;29;19938;-89
2023/06/14 00:26:49;;;;;;;;;;;26.10;41.90;;;;;;4901706;29;19911;-89
2023/06/14 00:29:15;;;;;;;;;;;26.10;41.90;;;;;;4917599;29;19911;-89
2023/06/14 00:31:40;;;;;;;;;;;26.10;42.00;;;;;;4901935;29;19911;-90
2023/06/14 00:34:09;;;;;;;;;;;26.00;41.90;;;;;;4902820;29;20013;-89
2023/06/14 00:36:35;;;;;;;;;;;26.00;42.00;;;;;;4902133;29;19994;-89
2023/06/14 00:39:00;;;;;;;;;;;25.90;42.00;;;;;;4902150;29;20211;-88
2023/06/14 00:41:26;;;;;;;;;;;26.00;42.00;;;;;;5138000;23;19931;-88
2023/06/14 00:43:53;;;;;;;;;;;26.00;42.00;;;;;;4913024;29;20235;-88
2023/06/14 00:46:19;;;;;;;;;;;25.90;41.90;;;;;;4908683;29;20392;-88
2023/06/14 00:48:45;;;;;;;;;;;25.90;41.90;;;;;;4916405;29;19954;-88
2023/06/14 00:51:11;;;;;;;;;;;25.90;42.00;;;;;;4906591;29;19951;-88
2023/06/14 00:53:36;;;;;;;;;;;25.90;42.00;;;;;;4916504;29;19965;-88
2023/06/14 00:56:02;;;;;;;;;;;25.90;42.00;;;;;;4907351;29;19911;-88
2023/06/14 00:58:28;;;;;;;;;;;25.90;41.90;;;;;;4917328;29;19911;-89
2023/06/14 01:00:54;;;;;;;;;;;25.80;42.00;;;;;;4916737;29;19911;-88
2023/06/14 01:03:21;;;;;;;;;;;25.80;42.00;;;;;;4917771;29;19971;-88
2023/06/14 01:05:48;;;;;;;;;;;25.80;42.00;;;;;;4916989;29;20005;-88
2023/06/14 01:08:24;;;;;;;;;;;25.80;42.10;;;;;;4917235;29;20363;-88
2023/06/14 01:10:52;;;;;;;;;;;25.80;42.00;;;;;;4916650;29;19926;-88
2023/06/14 01:13:21;;;;;;;;;;;25.80;42.00;;;;;;4896740;29;19911;-88
2023/06/14 01:15:47;;;;;;;;;;;25.80;42.00;;;;;;4910723;29;19910;-88
2023/06/14 01:18:19;;;;;;;;;;;25.80;42.00;;;;;;4918138;29;19922;-88
2023/06/14 01:20:49;;;;;;;;;;;25.80;42.10;;;;;;4909102;29;19911;-88
2023/06/14 01:23:18;;;;;;;;;;;25.80;42.10;;;;;;4928390;29;19995;-88
2023/06/14 01:25:44;;;;;;;;;;;25.70;42.00;;;;;;4922868;29;19911;-88
2023/06/14 01:28:11;;;;;;;;;;;25.70;42.10;;;;;;4899068;29;20331;-88
2023/06/14 01:30:45;;;;;;;;;;;25.70;42.10;;;;;;4916191;29;20028;-88
2023/06/14 01:33:15;;;;;;;;;;;25.70;42.10;;;;;;4903322;29;20223;-88
2023/06/14 01:35:44;;;;;;;;;;;25.70;42.10;;;;;;4901544;29;19923;-88
2023/06/14 01:38:10;;;;;;;;;;;25.70;42.10;;;;;;4914321;29;19915;-88
2023/06/14 01:40:36;;;;;;;;;;;25.70;42.20;;;;;;4900634;29;19942;-88
2023/06/14 01:43:03;;;;;;;;;;;25.70;42.20;;;;;;4905342;29;20074;-89
2023/06/14 01:45:28;;;;;;;;;;;25.70;42.20;;;;;;4899604;29;19986;-89
2023/06/14 01:47:54;;;;;;;;;;;25.70;42.20;;;;;;4904082;29;20263;-88
2023/06/14 01:50:20;;;;;;;;;;;25.60;42.10;;;;;;4914331;29;20058;-88
2023/06/14 01:52:46;;;;;;;;;;;25.60;42.20;;;;;;4917763;29;19954;-88
2023/06/14 01:55:11;;;;;;;;;;;25.60;42.20;;;;;;4901397;29;20013;-87
2023/06/14 01:57:37;;;;;;;;;;;25.60;42.20;;;;;;4912460;29;19921;-88
2023/06/14 02:00:14;;;;;;;;;;;25.60;42.30;;;;;;4903981;29;19918;-90
2023/06/14 02:02:40;;;;;;;;;;;25.60;42.20;;;;;;4911106;29;19922;-89
2023/06/14 02:05:06;;;;;;;;;;;25.60;42.30;;;;;;4915336;29;19931;-90
2023/06/14 02:07:31;;;;;;;;;;;25.60;42.30;;;;;;4915264;29;19919;-90
2023/06/14 02:09:57;;;;;;;;;;;25.60;42.30;;;;;;4915703;29;19911;-90
2023/06/14 02:12:23;;;;;;;;;;;25.60;42.30;;;;;;4914805;29;20025;-90
2023/06/14 02:14:48;;;;;;;;;;;25.60;42.30;;;;;;4898930;29;19912;-90
2023/06/14 02:17:14;;;;;;;;;;;25.50;42.30;;;;;;4916514;29;19911;-90
2023/06/14 02:19:40;;;;;;;;;;;25.50;42.40;;;;;;4902238;29;19911;-90
2023/06/14 02:22:06;;;;;;;;;;;25.50;42.40;;;;;;4918109;29;19926;-90
2023/06/14 02:24:32;;;;;;;;;;;25.50;42.40;;;;;;4918217;29;19911;-90
2023/06/14 02:26:57;;;;;;;;;;;25.50;42.40;;;;;;4920442;29;19915;-90
2023/06/14 02:29:23;;;;;;;;;;;25.50;42.50;;;;;;4919459;29;20039;-90
2023/06/14 02:31:49;;;;;;;;;;;25.40;42.40;;;;;;4918425;29;19911;-90
2023/06/14 02:34:16;;;;;;;;;;;25.40;42.50;;;;;;4919982;29;19911;-90
2023/06/14 02:36:45;;;;;;;;;;;25.40;42.50;;;;;;4920315;29;19930;-89
2023/06/14 02:39:11;;;;;;;;;;;25.40;42.50;;;;;;4920433;29;19915;-89
2023/06/14 02:41:37;;;;;;;;;;;25.40;42.50;;;;;;4920643;29;19945;-89
2023/06/14 02:44:02;;;;;;;;;;;25.40;42.50;;;;;;4921056;29;19915;-89
2023/06/14 02:46:28;;;;;;;;;;;25.40;42.50;;;;;;4920938;29;19942;-90
2023/06/14 02:48:54;;;;;;;;;;;25.40;42.50;;;;;;4921054;29;19911;-89
2023/06/14 02:51:19;;;;;;;;;;;25.40;42.50;;;;;;4921043;29;19907;-89
2023/06/14 02:53:45;;;;;;;;;;;25.40;42.50;;;;;;4921312;29;20032;-90
2023/06/14 02:56:11;;;;;;;;;;;25.40;42.50;;;;;;4921090;29;19919;-90
2023/06/14 02:58:37;;;;;;;;;;;25.30;42.50;;;;;;4920812;29;19911;-89
2023/06/14 03:01:05;;;;;;;;;;;25.30;42.50;;;;;;4920823;29;19911;-90
2023/06/14 03:03:31;;;;;;;;;;;25.30;42.50;;;;;;4923637;29;19923;-90
2023/06/14 03:06:02;;;;;;;;;;;25.30;42.60;;;;;;4920395;29;19985;-89
2023/06/14 03:08:28;;;;;;;;;;;25.30;42.60;;;;;;4919920;29;20287;-90
2023/06/14 03:10:56;;;;;;;;;;;25.30;42.60;;;;;;4919288;29;19966;-89
2023/06/14 03:13:21;;;;;;;;;;;25.20;42.50;;;;;;4919683;29;19994;-90
2023/06/14 03:15:50;;;;;;;;;;;25.20;42.60;;;;;;4918000;29;20226;-90
2023/06/14 03:18:16;;;;;;;;;;;25.20;42.60;;;;;;4917845;29;19911;-90
2023/06/14 03:20:45;;;;;;;;;;;25.20;42.60;;;;;;4917724;29;19911;-90
2023/06/14 03:23:11;;;;;;;;;;;25.10;42.50;;;;;;4916838;29;19919;-90
2023/06/14 03:25:38;;;;;;;;;;;25.10;42.50;;;;;;4916323;29;19919;-90
2023/06/14 03:28:04;;;;;;;;;;;25.10;42.50;;;;;;4916455;29;20237;-89
2023/06/14 03:30:30;;;;;;;;;;;25.10;42.50;;;;;;4916125;29;19911;-90
2023/06/14 03:32:55;;;;;;;;;;;25.10;42.40;;;;;;4915827;29;19978;-89
2023/06/14 03:35:21;;;;;;;;;;;25.10;42.50;;;;;;4916589;29;20272;-90
2023/06/14 03:37:47;;;;;;;;;;;25.10;42.50;;;;;;4915830;29;19967;-90
2023/06/14 03:40:14;;;;;;;;;;;25.10;42.50;;;;;;4915057;29;20191;-90
2023/06/14 03:42:40;;;;;;;;;;;25.10;42.60;;;;;;4916518;29;19925;-89
2023/06/14 03:45:06;;;;;;;;;;;25.10;42.60;;;;;;4915884;29;19942;-90
2023/06/14 03:47:32;;;;;;;;;;;25.10;42.60;;;;;;4915322;29;20373;-90
2023/06/14 03:49:57;;;;;;;;;;;25.10;43.00;;;;;;4916718;29;20129;-89
2023/06/14 03:52:23;;;;;;;;;;;25.10;42.60;;;;;;4917229;29;20195;-90
2023/06/14 03:54:49;;;;;;;;;;;25.10;42.60;;;;;;4915325;29;19954;-89
2023/06/14 03:57:15;;;;;;;;;;;25.00;42.60;;;;;;4917538;29;19918;-90
2023/06/14 03:59:41;;;;;;;;;;;25.00;43.00;;;;;;4917880;29;19915;-89
2023/06/14 04:02:07;;;;;;;;;;;25.00;42.60;;;;;;4915989;29;19915;-89
2023/06/14 04:04:35;;;;;;;;;;;25.00;42.70;;;;;;4902212;29;19990;-89
2023/06/14 04:07:03;;;;;;;;;;;25.00;42.60;;;;;;4918482;29;19915;-89
2023/06/14 04:09:29;;;;;;;;;;;24.90;42.60;;;;;;4902481;29;19919;-89
2023/06/14 04:11:55;;;;;;;;;;;24.90;42.60;;;;;;4917683;29;19918;-89
2023/06/14 04:14:21;;;;;;;;;;;24.90;42.60;;;;;;4916315;29;19915;-89
2023/06/14 04:16:47;;;;;;;;;;;24.90;42.60;;;;;;4914470;29;19919;-90
2023/06/14 04:19:13;;;;;;;;;;;25.00;42.60;;;;;;4899771;29;19918;-90
2023/06/14 04:21:38;;;;;;;;;;;25.00;42.50;;;;;;4915040;29;20159;-90
2023/06/14 04:24:04;;;;;;;;;;;25.00;42.60;;;;;;4916361;29;19917;-90
2023/06/14 04:26:33;;;;;;;;;;;25.00;42.50;;;;;;4917005;29;19978;-90
2023/06/14 04:29:01;;;;;;;;;;;25.00;42.50;;;;;;4900692;29;19947;-90
2023/06/14 04:31:33;;;;;;;;;;;25.00;42.40;;;;;;4913930;29;19976;-90
2023/06/14 04:33:59;;;;;;;;;;;25.00;42.50;;;;;;4914595;29;20013;-89
2023/06/14 04:36:25;;;;;;;;;;;24.90;42.50;;;;;;4912517;29;20109;-89
2023/06/14 04:38:53;;;;;;;;;;;24.90;42.40;;;;;;4912979;29;20019;-89
2023/06/14 04:41:22;;;;;;;;;;;25.00;42.50;;;;;;4914652;29;19927;-90
2023/06/14 04:43:49;;;;;;;;;;;25.00;42.50;;;;;;4915045;29;19919;-90
2023/06/14 04:46:15;;;;;;;;;;;25.00;42.40;;;;;;4913579;29;19966;-89
2023/06/14 04:48:42;;;;;;;;;;;25.00;42.30;;;;;;4913146;29;19911;-89
2023/06/14 04:51:09;;;;;;;;;;;25.10;42.40;;;;;;4914767;29;19943;-90
2023/06/14 04:53:35;;;;;;;;;;;25.10;42.30;;;;;;4913193;29;19919;-90
2023/06/14 04:56:00;;;;;;;;;;;25.10;42.30;;;;;;4914397;29;19918;-90
2023/06/14 04:58:27;;;;;;;;;;;25.10;42.30;;;;;;4915216;29;20256;-90
2023/06/14 05:00:53;;;;;;;;;;;25.20;42.30;;;;;;4914094;29;20010;-90
2023/06/14 05:03:20;;;;;;;;;;;25.20;42.20;;;;;;4897183;29;19955;-90
2023/06/14 05:05:46;;;;;;;;;;;25.20;42.20;;;;;;4913988;29;19945;-90
2023/06/14 05:08:12;;;;;;;;;;;25.20;42.20;;;;;;4897055;29;19911;-90
2023/06/14 05:10:38;;;;;;;;;;;25.20;42.20;;;;;;4896327;29;19946;-90
2023/06/14 05:13:03;;;;;;;;;;;25.30;42.20;;;;;;4911447;29;19911;-90
2023/06/14 05:15:29;;;;;;;;;;;25.30;42.40;;;;;;4895833;29;19911;-90
2023/06/14 05:17:55;;;;;;;;;;;25.30;42.10;;;;;;4909468;29;20018;-90
2023/06/14 05:20:26;;;;;;;;;;;25.40;42.10;;;;;;4893896;29;19919;-90
2023/06/14 05:22:55;;;;;;;;;;;25.40;42.10;;;;;;4908870;29;19926;-90
2023/06/14 05:25:20;;;;;;;;;;;25.40;42.60;;;;;;4892166;29;19911;-90
2023/06/14 05:27:46;;;;;;;;;;;25.40;42.10;;;;;;4892234;29;19918;-90
2023/06/14 05:30:12;;;;;;;;;;;25.50;42.10;;;;;;4909009;29;19975;-89
2023/06/14 05:32:38;;;;;;;;;;;25.50;42.20;;;;;;4908885;29;19915;-90
2023/06/14 05:35:04;;;;;;;;;;;25.40;42.20;;;;;;4894994;29;19926;-89
2023/06/14 05:37:30;;;;;;;;;;;25.50;42.20;;;;;;4910409;29;19911;-89
2023/06/14 05:39:56;;;;;;;;;;;25.60;42.30;;;;;;4894815;29;19911;-90
2023/06/14 05:42:22;;;;;;;;;;;25.60;42.30;;;;;;4893473;29;19989;-89
2023/06/14 05:44:47;;;;;;;;;;;25.60;42.20;;;;;;4893851;29;20017;-90
2023/06/14 05:47:13;;;;;;;;;;;25.60;42.20;;;;;;4893187;29;20334;-89
2023/06/14 05:49:39;;;;;;;;;;;25.70;42.10;;;;;;4892451;29;19911;-90
2023/06/14 05:52:04;;;;;;;;;;;25.70;42.10;;;;;;4892215;29;19923;-89
2023/06/14 05:54:30;;;;;;;;;;;25.80;42.10;;;;;;4908624;29;20061;-90
2023/06/14 05:57:01;;;;;;;;;;;25.80;42.10;;;;;;4892510;29;19978;-89
2023/06/14 05:59:26;;;;;;;;;;;25.80;42.10;;;;;;4891264;29;19919;-89
2023/06/14 06:01:52;;;;;;;;;;;25.80;42.10;;;;;;4891661;29;20495;-90
2023/06/14 06:04:18;;;;;;;;;;;25.80;42.10;;;;;;4893589;29;20347;-90
2023/06/14 06:06:43;;;;;;;;;;;25.90;42.10;;;;;;4892194;29;19912;-90
2023/06/14 06:09:09;;;;;;;;;;;25.90;42.00;;;;;;4875092;29;19919;-90
2023/06/14 06:11:35;;;;;;;;;;;26.00;42.00;;;;;;4890252;29;20137;-90
2023/06/14 06:14:00;;;;;;;;;;;26.10;42.00;;;;;;4890425;29;20186;-90
2023/06/14 06:16:26;;;;;;;;;;;26.10;41.90;;;;;;4890815;29;20142;-90
2023/06/14 06:18:52;;;;;;;;;;;26.20;41.90;;;;;;4891317;29;20191;-90
2023/06/14 06:21:17;;;;;;;;;;;26.30;41.90;;;;;;4892341;29;20203;-90
2023/06/14 06:23:43;;;;;;;;;;;26.40;41.90;;;;;;4889579;29;20271;-90
2023/06/14 06:26:08;;;;;;;;;;;26.40;41.90;;;;;;4891828;29;20254;-89
2023/06/14 06:28:34;;;;;;;;;;;26.40;42.00;;;;;;4892836;29;20149;-90
2023/06/14 06:31:00;;;;;;;;;;;26.40;41.90;;;;;;4891553;29;19911;-89
2023/06/14 06:33:26;;;;;;;;;;;26.60;41.80;;;;;;4891481;29;19912;-90
2023/06/14 06:35:52;;;;;;;;;;;26.50;42.00;;;;;;4889768;29;19911;-89
2023/06/14 06:38:18;;;;;;;;;;;26.60;41.90;;;;;;4888861;29;20053;-90
2023/06/14 06:40:44;;;;;;;;;;;26.70;41.90;;;;;;4890030;29;20283;-90
2023/06/14 06:43:13;;;;;;;;;;;26.80;41.60;;;;;;4905604;29;19923;-90
2023/06/14 06:45:41;;;;;;;;;;;26.90;41.70;;;;;;4891839;29;20167;-90
2023/06/14 06:48:09;;;;;;;;;;;27.00;41.70;;;;;;4891707;29;19911;-90
2023/06/14 06:50:35;;;;;;;;;;;27.10;41.60;;;;;;4892282;29;20171;-90
2023/06/14 06:53:00;;;;;;;;;;;27.20;41.20;;;;;;4892408;29;19912;-90
2023/06/14 06:55:26;;;;;;;;;;;27.20;41.30;;;;;;4894709;29;20002;-90
2023/06/14 06:57:53;;;;;;;;;;;27.30;41.10;;;;;;4893422;29;20081;-90
2023/06/14 07:00:19;;;;;;;;;;;27.20;41.20;;;;;;4892751;29;20370;-90
2023/06/14 07:02:45;;;;;;;;;;;27.30;41.10;;;;;;4907742;29;20212;-90
2023/06/14 07:05:11;;;;;;;;;;;27.40;41.10;;;;;;4890168;29;19919;-88
2023/06/14 07:07:36;;;;;;;;;;;27.40;40.90;;;;;;4891381;29;19919;-89
2023/06/14 07:10:04;;;;;;;;;;;27.50;41.20;;;;;;4892441;29;19911;-90
2023/06/14 07:12:35;;;;;;;;;;;27.60;41.20;;;;;;4911106;29;19921;-90
2023/06/14 07:15:01;;;;;;;;;;;27.70;41.20;;;;;;4911783;29;19919;-90
2023/06/14 07:17:27;;;;;;;;;;;27.70;41.00;;;;;;4895456;29;19998;-90
2023/06/14 07:19:53;;;;;;;;;;;27.80;41.00;;;;;;4911219;29;20072;-90
2023/06/14 07:22:19;;;;;;;;;;;27.80;40.90;;;;;;4894557;29;20268;-90
2023/06/14 07:24:44;;;;;;;;;;;27.90;40.90;;;;;;4910281;29;19923;-91
2023/06/14 07:27:11;;;;;;;;;;;28.00;40.90;;;;;;4916803;29;19900;-90
2023/06/14 07:29:36;;;;;;;;;;;28.10;41.10;;;;;;4914162;29;19911;-90
2023/06/14 07:32:02;;;;;;;;;;;28.10;41.00;;;;;;4911644;29;20405;-90
2023/06/14 07:34:28;;;;;;;;;;;28.20;41.30;;;;;;4910830;29;19950;-90
2023/06/14 07:36:54;;;;;;;;;;;28.30;41.00;;;;;;4909908;29;19915;-90
2023/06/14 07:39:19;;;;;;;;;;;28.30;40.70;;;;;;4909475;29;19966;-89
2023/06/14 07:41:45;;;;;;;;;;;28.30;40.80;;;;;;4912173;29;19950;-90
2023/06/14 07:44:12;;;;;;;;;;;28.40;40.90;;;;;;4911046;29;19911;-91
2023/06/14 07:46:38;;;;;;;;;;;28.40;40.40;;;;;;4908970;29;20132;-90
2023/06/14 07:49:03;;;;;;;;;;;28.50;40.30;;;;;;4910471;29;20262;-89
2023/06/14 07:51:29;;;;;;;;;;;28.60;40.20;;;;;;4911371;29;20170;-90
2023/06/14 07:53:55;;;;;;;;;;;28.50;40.00;;;;;;4909199;29;19911;-90
2023/06/14 07:56:21;;;;;;;;;;;28.70;40.60;;;;;;4910816;29;19911;-90
2023/06/14 07:58:46;;;;;;;;;;;28.70;40.40;;;;;;4907783;29;19911;-90
2023/06/14 08:01:12;;;;;;;;;;;28.70;40.10;;;;;;4909200;29;19923;-90
2023/06/14 08:03:38;;;;;;;;;;;28.80;40.30;;;;;;4909379;29;19915;-90
2023/06/14 08:06:04;;;;;;;;;;;28.80;40.50;;;;;;4911015;29;19922;-90
2023/06/14 08:08:30;;;;;;;;;;;28.80;40.40;;;;;;4910121;29;19911;-89
2023/06/14 08:10:55;;;;;;;;;;;28.70;40.20;;;;;;4910438;29;19911;-90
2023/06/14 08:13:21;;;;;;;;;;;28.30;40.40;;;;;;4910290;29;19915;-90
2023/06/14 08:15:47;;;;;;;;;;;28.20;40.70;;;;;;4910638;29;19915;-90
2023/06/14 08:18:12;;;;;;;;;;;28.20;40.80;;;;;;4907262;29;20275;-90
2023/06/14 08:20:38;;;;;;;;;;;28.30;40.70;;;;;;4909363;29;19918;-90
2023/06/14 08:23:04;;;;;;;;;;;28.40;40.40;;;;;;4910720;29;19982;-90
2023/06/14 08:25:30;;;;;;;;;;;28.50;40.50;;;;;;4906409;29;20014;-90
2023/06/14 08:27:56;;;;;;;;;;;28.60;40.00;;;;;;4908905;29;19907;-90
2023/06/14 08:30:22;;;;;;;;;;;28.60;39.50;;;;;;4905524;29;20192;-90
2023/06/14 08:32:47;;;;;;;;;;;28.60;39.70;;;;;;4905615;29;19979;-89
2023/06/14 08:35:13;;;;;;;;;;;28.40;39.10;;;;;;4908416;29;19970;-89
2023/06/14 08:37:43;;;;;;;;;;;28.30;40.40;;;;;;4908879;29;19911;-90
2023/06/14 08:40:17;;;;;;;;;;;28.30;40.20;;;;;;4907811;29;19912;-90
2023/06/14 08:42:43;;;;;;;;;;;28.50;40.50;;;;;;4909747;29;19919;-89
2023/06/14 08:45:08;;;;;;;;;;;28.60;40.40;;;;;;4908610;29;19922;-90
2023/06/14 08:47:36;;;;;;;;;;;28.60;40.40;;;;;;4910481;29;19915;-90
2023/06/14 08:50:04;;;;;;;;;;;28.70;39.60;;;;;;4909310;29;20173;-90
2023/06/14 08:52:33;;;;;;;;;;;28.50;39.20;;;;;;4908309;29;19937;-90
2023/06/14 08:54:59;;;;;;;;;;;28.50;39.00;;;;;;4910581;29;20412;-90
2023/06/14 08:57:30;;;;;;;;;;;28.50;39.50;;;;;;4908380;29;20005;-90
2023/06/14 08:59:56;;;;;;;;;;;28.50;39.30;;;;;;4909736;29;20013;-89
2023/06/14 09:02:22;;;;;;;;;;;28.30;39.60;;;;;;4909952;29;20075;-88
2023/06/14 09:04:49;;;;;;;;;;;28.40;40.00;;;;;;4911813;29;20108;-88
2023/06/14 09:07:15;;;;;;;;;;;28.50;39.90;;;;;;4909325;29;19939;-89
2023/06/14 09:09:41;;;;;;;;;;;28.60;39.70;;;;;;4908066;29;19945;-88
2023/06/14 09:12:10;;;;;;;;;;;28.70;39.30;;;;;;4906951;29;19911;-89
2023/06/14 09:14:38;;;;;;;;;;;28.50;39.40;;;;;;4908146;29;19919;-88
2023/06/14 09:17:04;;;;;;;;;;;28.60;39.20;;;;;;4907933;29;20247;-88
2023/06/14 09:19:30;;;;;;;;;;;28.40;39.40;;;;;;4906683;29;20326;-88
2023/06/14 09:21:55;;;;;;;;;;;28.40;39.70;;;;;;4909471;29;19915;-87
2023/06/14 09:24:21;;;;;;;;;;;28.10;39.50;;;;;;4908590;29;20089;-87
2023/06/14 09:26:47;;;;;;;;;;;27.70;39.50;;;;;;4907885;29;19911;-87
2023/06/14 09:29:13;;;;;;;;;;;27.80;39.90;;;;;;4907250;29;19990;-87
2023/06/14 09:31:38;;;;;;;;;;;27.80;39.40;;;;;;4920820;29;20176;-87
2023/06/14 09:34:04;;;;;;;;;;;27.90;39.90;;;;;;4910341;29;20054;-87
2023/06/14 09:36:31;;;;;;;;;;;28.00;39.50;;;;;;4910347;29;19994;-88
2023/06/14 09:38:57;;;;;;;;;;;28.20;39.90;;;;;;4906649;29;19915;-90
2023/06/14 09:41:32;;;;;;;;;;;28.30;39.30;;;;;;4907701;29;19919;-90
2023/06/14 09:44:00;;;;;;;;;;;28.40;39.50;;;;;;4909800;29;19923;-90
2023/06/14 09:46:29;;;;;;;;;;;28.40;38.90;;;;;;4905049;29;19911;-89
2023/06/14 09:48:58;;;;;;;;;;;28.50;39.60;;;;;;4906741;29;20018;-91
2023/06/14 09:51:26;;;;;;;;;;;28.60;39.20;;;;;;4905872;29;19942;-89
2023/06/14 09:53:51;;;;;;;;;;;28.70;39.50;;;;;;4906155;29;19911;-90
2023/06/14 09:56:26;;;;;;;;;;;28.80;39.10;;;;;;4906980;29;19938;-90
2023/06/14 09:58:56;;;;;;;;;;;28.80;39.80;;;;;;4905430;29;19982;-89
2023/06/14 10:01:22;;;;;;;;;;;28.80;39.80;;;;;;4906591;29;19911;-89
2023/06/14 10:03:50;;;;;;;;;;;28.80;39.60;;;;;;4905446;29;20449;-89
2023/06/14 10:06:16;;;;;;;;;;;28.90;39.60;;;;;;4904381;29;19919;-90
2023/06/14 10:08:43;;;;;;;;;;;28.90;40.10;;;;;;4904044;29;20294;-90
2023/06/14 10:11:09;;;;;;;;;;;28.80;39.70;;;;;;4903683;29;20089;-90
2023/06/14 10:13:35;;;;;;;;;;;28.70;39.90;;;;;;4905880;29;19911;-89
2023/06/14 10:16:16;;;;;;;;;;;28.40;39.70;;;;;;4905177;29;20113;-90
2023/06/14 10:18:49;;;;;;;;;;;28.30;40.10;;;;;;4903864;29;20180;-90
2023/06/14 10:21:31;;;;;;;;;;;28.40;40.00;;;;;;4904336;29;20006;-89
2023/06/14 10:24:01;;;;;;;;;;;28.50;39.90;;;;;;4903598;29;20021;-89
2023/06/14 10:26:27;;;;;;;;;;;28.60;39.90;;;;;;4902905;29;19911;-91
2023/06/14 10:28:57;;;;;;;;;;;28.60;40.00;;;;;;4902996;29;20175;-90
2023/06/14 10:31:22;;;;;;;;;;;28.60;40.00;;;;;;4905433;29;20306;-90
2023/06/14 10:33:52;;;;;;;;;;;28.70;40.30;;;;;;4901895;29;20018;-90
2023/06/14 10:36:27;;;;;;;;;;;28.70;40.20;;;;;;4904935;29;19911;-89
2023/06/14 10:39:28;;;;;;;;;;;28.60;40.40;;;;;;4891159;29;19918;-90
2023/06/14 10:41:55;;;;;;;;;;;28.70;40.30;;;;;;4912507;29;19927;-90
2023/06/14 10:44:21;;;;;;;;;;;28.70;40.00;;;;;;4904595;29;19911;-90
2023/06/14 10:46:47;;;;;;;;;;;28.60;40.60;;;;;;4906586;29;19922;-90
2023/06/14 10:49:19;;;;;;;;;;;28.70;40.40;;;;;;4922707;29;20192;-90
2023/06/14 10:51:49;;;;;;;;;;;28.70;40.50;;;;;;4911791;29;19911;-89
2023/06/14 10:54:16;;;;;;;;;;;28.70;40.60;;;;;;4909204;29;19911;-90
2023/06/14 10:56:48;;;;;;;;;;;28.70;40.60;;;;;;4908927;29;19915;-91
2023/06/14 10:59:15;;;;;;;;;;;28.80;40.30;;;;;;4908349;29;19919;-90
2023/06/14 11:01:47;;;;;;;;;;;28.80;40.40;;;;;;4910651;29;20742;-90
2023/06/14 11:04:12;;;;;;;;;;;28.80;40.70;;;;;;4910181;29;20498;-90
2023/06/14 11:06:48;;;;;;;;;;;28.80;40.60;;;;;;4909778;29;19997;-91
2023/06/14 11:09:43;;;;;;;;;;;28.80;40.60;;;;;;4925774;29;19919;-92
2023/06/14 11:12:10;;;;;;;;;;;28.80;40.50;;;;;;4807991;29;20317;-90
2023/06/14 11:14:36;;;;;;;;;;;28.80;40.70;;;;;;4915575;29;20002;-89
2023/06/14 11:17:04;;;;;;;;;;;28.80;40.50;;;;;;4903160;29;19986;-90
2023/06/14 11:19:30;;;;;;;;;;;28.70;40.60;;;;;;4906888;29;19978;-89
2023/06/14 11:21:55;;;;;;;;;;;28.70;40.60;;;;;;4916248;29;19918;-90
2023/06/14 11:24:24;;;;;;;;;;;28.70;40.60;;;;;;4896711;29;19915;-90
2023/06/14 11:26:50;;;;;;;;;;;28.70;40.30;;;;;;4918618;29;20026;-90
2023/06/14 11:29:16;;;;;;;;;;;28.60;40.30;;;;;;4906112;29;20022;-90
2023/06/14 11:31:45;;;;;;;;;;;28.60;40.50;;;;;;4910505;29;20184;-89
2023/06/14 11:34:14;;;;;;;;;;;28.60;40.50;;;;;;4907155;29;19915;-90
2023/06/14 11:36:39;;;;;;;;;;;28.50;40.50;;;;;;4891637;29;19915;-89
2023/06/14 11:39:07;;;;;;;;;;;28.50;40.40;;;;;;4907613;29;20397;-92
2023/06/14 11:41:40;;;;;;;;;;;28.40;40.40;;;;;;4909653;29;19923;-92
2023/06/14 11:44:07;;;;;;;;;;;28.40;40.40;;;;;;4920075;29;19992;-89
2023/06/14 11:46:33;;;;;;;;;;;28.30;40.70;;;;;;4900225;29;20018;-90
2023/06/14 11:48:58;;;;;;;;;;;28.30;40.70;;;;;;4907160;29;19915;-89
2023/06/14 11:51:24;;;;;;;;;;;28.30;40.60;;;;;;4903257;29;20112;-89
2023/06/14 11:53:50;;;;;;;;;;;28.00;40.90;;;;;;4911695;29;19948;-89
2023/06/14 11:56:16;;;;;;;;;;;28.00;41.00;;;;;;4910873;29;19911;-90
2023/06/14 11:58:43;;;;;;;;;;;28.00;40.90;;;;;;4910700;29;19915;-89
2023/06/14 12:01:08;;;;;;;;;;;28.00;40.90;;;;;;4908604;29;20011;-90
2023/06/14 12:03:35;;;;;;;;;;;28.10;41.00;;;;;;4917686;29;19919;-89
2023/06/14 12:06:11;;;;;;;;;;;28.10;41.00;;;;;;4905561;29;20169;-90
2023/06/14 12:08:41;;;;;;;;;;;27.90;41.20;;;;;;4906526;29;20193;-89
2023/06/14 12:11:10;;;;;;;;;;;27.90;41.00;;;;;;4903265;29;19930;-90
2023/06/14 12:13:38;;;;;;;;;;;27.80;41.30;;;;;;4905273;29;19915;-90
2023/06/14 12:16:03;;;;;;;;;;;27.90;41.20;;;;;;4911631;29;20017;-90
2023/06/14 12:18:34;;;;;;;;;;;27.80;40.80;;;;;;4907737;29;20104;-90
2023/06/14 12:21:02;;;;;;;;;;;27.70;41.10;;;;;;4906507;29;20180;-89
2023/06/14 12:23:47;;;;;;;;;;;27.70;41.10;;;;;;4905481;29;19926;-90
2023/06/14 12:26:14;;;;;;;;;;;27.70;41.80;;;;;;4904655;29;20096;-90
2023/06/14 12:28:42;;;;;;;;;;;27.80;41.20;;;;;;4908470;29;19919;-90
2023/06/14 12:31:08;;;;;;;;;;;27.80;41.30;;;;;;4909264;29;19911;-90
2023/06/14 12:33:34;;;;;;;;;;;28.00;41.40;;;;;;4906814;29;19981;-90
2023/06/14 12:35:59;;;;;;;;;;;28.00;41.30;;;;;;4909292;29;19977;-89
2023/06/14 12:38:25;;;;;;;;;;;28.10;41.10;;;;;;4908881;29;19911;-90
2023/06/14 12:40:51;;;;;;;;;;;28.00;41.20;;;;;;4909927;29;19977;-90
2023/06/14 12:43:16;;;;;;;;;;;28.10;41.30;;;;;;4907807;29;20152;-90
2023/06/14 12:45:42;;;;;;;;;;;28.10;41.20;;;;;;4907462;29;20203;-90
2023/06/14 12:48:08;;;;;;;;;;;27.90;41.40;;;;;;4909459;29;19923;-90
2023/06/14 12:50:34;;;;;;;;;;;27.70;40.90;;;;;;4909526;29;20120;-90
2023/06/14 12:53:00;;;;;;;;;;;27.70;41.60;;;;;;4906364;29;20003;-90
2023/06/14 12:55:25;;;;;;;;;;;27.80;41.30;;;;;;4907542;29;19961;-91
2023/06/14 12:57:51;;;;;;;;;;;27.90;41.50;;;;;;4908610;29;19911;-90
2023/06/14 13:00:17;;;;;;;;;;;27.90;41.20;;;;;;4906329;29;19911;-90
2023/06/14 13:02:43;;;;;;;;;;;27.90;41.40;;;;;;4907467;29;19942;-89
2023/06/14 13:05:09;;;;;;;;;;;27.90;41.10;;;;;;4907641;29;20035;-90
2023/06/14 13:07:35;;;;;;;;;;;27.60;41.50;;;;;;4906272;29;20005;-91
2023/06/14 13:10:00;;;;;;;;;;;27.60;41.50;;;;;;4907597;29;19919;-90
2023/06/14 13:12:26;;;;;;;;;;;27.70;41.40;;;;;;4906579;29;20049;-90
2023/06/14 13:14:55;;;;;;;;;;;27.80;41.50;;;;;;4906839;29;20215;-90
2023/06/14 13:17:22;;;;;;;;;;;27.80;41.30;;;;;;4906887;29;19958;-91
2023/06/14 13:19:47;;;;;;;;;;;27.90;41.20;;;;;;4908915;29;19911;-91
2023/06/14 13:22:13;;;;;;;;;;;27.90;41.40;;;;;;4910667;29;19919;-91
2023/06/14 13:24:38;;;;;;;;;;;27.80;41.20;;;;;;4910929;29;19921;-91
2023/06/14 13:27:05;;;;;;;;;;;27.90;41.40;;;;;;4909139;29;19922;-90
2023/06/14 13:29:32;;;;;;;;;;;27.90;41.30;;;;;;4906232;29;20272;-91
2023/06/14 13:31:58;;;;;;;;;;;27.80;41.20;;;;;;4907790;29;19911;-90
2023/06/14 13:34:24;;;;;;;;;;;27.70;41.40;;;;;;4906401;29;19922;-90
2023/06/14 13:36:49;;;;;;;;;;;27.70;41.50;;;;;;4912648;29;19919;-90
2023/06/14 13:39:15;;;;;;;;;;;27.70;41.40;;;;;;4905460;29;19922;-90
2023/06/14 13:41:41;;;;;;;;;;;27.80;41.40;;;;;;4905961;29;19927;-90
2023/06/14 13:44:06;;;;;;;;;;;27.80;41.00;;;;;;4905680;29;19915;-91
2023/06/14 13:46:32;;;;;;;;;;;27.70;41.40;;;;;;4906580;29;20077;-91
2023/06/14 13:48:58;;;;;;;;;;;27.70;41.40;;;;;;4904365;29;19911;-91
2023/06/14 13:51:26;;;;;;;;;;;27.60;41.40;;;;;;4909073;29;20031;-90
2023/06/14 13:53:52;;;;;;;;;;;27.70;41.60;;;;;;4909132;29;20195;-90
2023/06/14 13:56:18;;;;;;;;;;;27.70;41.30;;;;;;4909336;29;20121;-91
2023/06/14 13:58:44;;;;;;;;;;;27.50;41.30;;;;;;4906862;29;20243;-91
2023/06/14 14:01:11;;;;;;;;;;;27.50;41.50;;;;;;4906773;29;20102;-91
2023/06/14 14:03:37;;;;;;;;;;;27.50;41.50;;;;;;4905897;29;19922;-91
2023/06/14 14:06:03;;;;;;;;;;;27.70;41.40;;;;;;4906246;29;19911;-90
2023/06/14 14:08:29;;;;;;;;;;;27.70;41.50;;;;;;4906808;29;20060;-90
2023/06/14 14:10:55;;;;;;;;;;;27.70;41.50;;;;;;4906415;29;19911;-91
2023/06/14 14:13:21;;;;;;;;;;;27.70;41.50;;;;;;4905234;29;20279;-90
2023/06/14 14:15:47;;;;;;;;;;;27.70;41.60;;;;;;4905796;29;20443;-91